createdAt,value
2019-05-25T00:01:47.473Z,99860.77
2019-05-25T00:04:18.471Z,99860.30
2019-05-25T00:06:49.476Z,99867.82
2019-05-25T00:09:20.392Z,99868.88
2019-05-25T00:11:51.414Z,99869.39
2019-05-25T00:14:22.520Z,99879.09
2019-05-25T00:16:53.516Z,99871.09
2019-05-25T00:19:24.524Z,99872.65
2019-05-25T00:21:55.516Z,99864.70
2019-05-25T00:24:26.470Z,99872.66
2019-05-25T00:26:57.460Z,99863.66
2019-05-25T00:29:28.394Z,99864.17
2019-05-25T00:31:59.337Z,99857.38
2019-05-25T00:34:30.469Z,99848.20
2019-05-25T00:37:01.466Z,99844.61
2019-05-25T00:39:32.389Z,99847.98
2019-05-25T00:42:03.463Z,99848.16
2019-05-25T00:44:34.383Z,99856.33
2019-05-25T00:47:05.516Z,99855.32
2019-05-25T00:49:36.485Z,99846.30
2019-05-25T00:52:07.599Z,99841.91
2019-05-25T00:54:38.557Z,99835.63
2019-05-25T00:57:09.581Z,99836.47
2019-05-25T00:59:40.663Z,99838.16
2019-05-25T01:02:11.682Z,99837.48
2019-05-25T01:04:42.722Z,99827.97
2019-05-25T01:07:13.707Z,99829.33
2019-05-25T01:09:44.673Z,99822.86
2019-05-25T01:12:15.647Z,99832.70
2019-05-25T01:14:46.662Z,99836.78
2019-05-25T01:17:17.656Z,99830.83
2019-05-25T01:19:48.784Z,99827.27
2019-05-25T01:22:19.795Z,99830.50
2019-05-25T01:24:50.881Z,99823.21
2019-05-25T01:27:21.981Z,99824.24
2019-05-25T01:29:52.903Z,99822.19
2019-05-25T01:32:23.923Z,99821.02
2019-05-25T01:34:54.849Z,99819.98
2019-05-25T01:37:25.934Z,99821.00
2019-05-25T01:39:57.012Z,99822.36
2019-05-25T01:42:28.070Z,99822.56
2019-05-25T01:44:59.013Z,99825.27
2019-05-25T01:47:29.990Z,99828.31
2019-05-25T01:50:00.974Z,99832.58
2019-05-25T01:52:31.929Z,99834.61
2019-05-25T01:55:02.812Z,99827.48
2019-05-25T01:57:33.804Z,99829.36
2019-05-25T02:00:06.663Z,99831.89
2019-05-25T02:02:37.790Z,99829.70
2019-05-25T02:05:09.084Z,99821.72
2019-05-25T02:07:40.023Z,99827.63
2019-05-25T02:10:11.029Z,99837.50
2019-05-25T02:12:41.994Z,99848.18
2019-05-25T02:15:13.236Z,99841.73
2019-05-25T02:17:44.227Z,99836.93
2019-05-25T02:20:15.295Z,99833.73
2019-05-25T02:22:46.342Z,99835.69
2019-05-25T02:25:18.777Z,99837.55
2019-05-25T02:27:50.206Z,99831.61
2019-05-25T02:30:24.170Z,99832.45
2019-05-25T02:32:55.216Z,99832.80
2019-05-25T02:35:29.607Z,99836.18
2019-05-25T02:38:00.623Z,99835.53
2019-05-25T02:40:31.663Z,99845.05
2019-05-25T02:43:02.745Z,99846.73
2019-05-25T02:45:33.807Z,99844.53
2019-05-25T02:48:04.961Z,99854.57
2019-05-25T02:50:36.062Z,99843.36
2019-05-25T02:53:07.214Z,99848.09
2019-05-25T02:55:38.245Z,99853.16
2019-05-25T02:58:09.143Z,99855.33
2019-05-25T03:00:40.139Z,99855.82
2019-05-25T03:03:11.181Z,99855.79
2019-05-25T03:05:42.319Z,99854.92
2019-05-25T03:08:13.426Z,99855.41
2019-05-25T03:10:44.578Z,99850.25
2019-05-25T03:13:16.445Z,99856.83
2019-05-25T03:15:47.448Z,99846.23
2019-05-25T03:18:18.382Z,99849.92
2019-05-25T03:20:49.301Z,99854.05
2019-05-25T03:23:20.297Z,99850.81
2019-05-25T03:25:51.291Z,99862.17
2019-05-25T03:28:22.261Z,99855.30
2019-05-25T03:30:53.290Z,99860.54
2019-05-25T03:33:24.252Z,99859.86
2019-05-25T03:35:55.412Z,99862.02
2019-05-25T03:38:26.341Z,99861.81
2019-05-25T03:40:57.242Z,99860.07
2019-05-25T03:43:28.309Z,99862.54
2019-05-25T03:45:59.477Z,99860.69
2019-05-25T03:48:30.443Z,99856.56
2019-05-25T03:51:01.387Z,99853.95
2019-05-25T03:53:32.447Z,99856.45
2019-05-25T03:56:06.268Z,99851.16
2019-05-25T03:58:36.153Z,99845.08
2019-05-25T04:01:07.127Z,99843.02
2019-05-25T04:03:38.233Z,99845.84
2019-05-25T04:06:09.242Z,99837.44
2019-05-25T04:08:40.188Z,99838.91
2019-05-25T04:11:11.269Z,99828.48
2019-05-25T04:13:42.202Z,99834.78
2019-05-25T04:16:13.194Z,99830.64
2019-05-25T04:18:44.135Z,99829.77
2019-05-25T04:21:15.150Z,99828.27
2019-05-25T04:23:46.215Z,99837.40
2019-05-25T04:26:22.554Z,99837.11
2019-05-25T04:28:50.054Z,99838.81
2019-05-25T04:31:21.052Z,99846.94
2019-05-25T04:33:52.144Z,99858.74
2019-05-25T04:36:23.114Z,99863.16
2019-05-25T04:38:54.474Z,99859.03
2019-05-25T04:41:25.460Z,99853.09
2019-05-25T04:43:56.543Z,99854.80
2019-05-25T04:46:27.638Z,99855.31
2019-05-25T04:48:58.547Z,99853.14
2019-05-25T04:51:29.503Z,99851.42
2019-05-25T04:54:00.590Z,99852.80
2019-05-25T04:56:39.650Z,99853.02
2019-05-25T04:59:04.279Z,99857.54
2019-05-25T05:01:35.415Z,99856.19
2019-05-25T05:04:10.304Z,99865.33
2019-05-25T05:06:41.883Z,99855.55
2019-05-25T05:09:13.013Z,99855.36
2019-05-25T05:11:44.183Z,99858.41
2019-05-25T05:14:15.211Z,99859.02
2019-05-25T05:16:46.251Z,99861.20
2019-05-25T05:19:17.207Z,99860.33
2019-05-25T05:21:48.322Z,99861.55
2019-05-25T05:24:19.302Z,99847.58
2019-05-25T05:26:55.613Z,99853.59
2019-05-25T05:29:23.066Z,99848.17
2019-05-25T05:31:55.776Z,99844.66
2019-05-25T05:34:26.778Z,99852.80
2019-05-25T05:36:58.431Z,99861.83
2019-05-25T05:39:31.829Z,99867.88
2019-05-25T05:42:03.571Z,99866.20
2019-05-25T05:44:35.318Z,99859.92
2019-05-25T05:47:10.273Z,99865.09
2019-05-25T05:49:41.192Z,99858.64
2019-05-25T05:52:13.958Z,99866.85
2019-05-25T05:54:46.594Z,99864.98
2019-05-25T05:57:19.043Z,99873.46
2019-05-25T05:59:50.211Z,99875.45
2019-05-25T06:02:21.901Z,99869.16
2019-05-25T06:04:54.931Z,99871.54
2019-05-25T06:07:28.705Z,99867.98
2019-05-25T06:09:59.755Z,99857.42
2019-05-25T06:12:30.836Z,99865.31
2019-05-25T06:15:01.945Z,99853.98
2019-05-25T06:17:33.002Z,99847.07
2019-05-25T06:20:09.684Z,99853.07
2019-05-25T06:22:40.731Z,99848.50
2019-05-25T06:25:11.838Z,99842.91
2019-05-25T06:27:43.081Z,99834.02
2019-05-25T06:30:14.239Z,99837.48
2019-05-25T06:32:45.387Z,99829.73
2019-05-25T06:35:16.462Z,99820.45
2019-05-25T06:37:47.441Z,99815.12
2019-05-25T06:40:20.753Z,99815.27
2019-05-25T06:42:51.696Z,99821.62
2019-05-25T06:45:22.789Z,99817.33
2019-05-25T06:47:53.798Z,99819.34
2019-05-25T06:50:25.147Z,99825.60
2019-05-25T06:52:57.952Z,99827.86
2019-05-25T06:55:28.943Z,99825.56
2019-05-25T06:57:59.996Z,99822.95
2019-05-25T07:00:30.978Z,99815.80
2019-05-25T07:03:04.566Z,99803.95
2019-05-25T07:05:35.635Z,99810.20
2019-05-25T07:08:06.714Z,99807.45
2019-05-25T07:10:38.615Z,99802.73
2019-05-25T07:13:09.811Z,99807.59
2019-05-25T07:15:40.925Z,99804.42
2019-05-25T07:18:11.936Z,99805.80
2019-05-25T07:20:43.022Z,99803.41
2019-05-25T07:23:14.155Z,99808.44
2019-05-25T07:25:45.296Z,99799.67
2019-05-25T07:28:16.283Z,99805.84
2019-05-25T07:30:47.263Z,99803.13
2019-05-25T07:33:18.297Z,99795.47
2019-05-25T07:35:49.306Z,99799.41
2019-05-25T07:38:20.337Z,99795.63
2019-05-25T07:40:51.397Z,99799.49
2019-05-25T07:43:22.370Z,99792.66
2019-05-25T07:45:53.351Z,99788.69
2019-05-25T07:48:24.406Z,99790.31
2019-05-25T07:50:57.599Z,99802.30
2019-05-25T07:53:28.633Z,99796.91
2019-05-25T07:55:59.622Z,99808.38
2019-05-25T07:58:30.625Z,99805.88
2019-05-25T08:01:01.659Z,99808.98
2019-05-25T08:03:32.739Z,99809.23
2019-05-25T08:06:06.789Z,99807.07
2019-05-25T08:08:37.755Z,99808.69
2019-05-25T08:11:08.777Z,99808.64
2019-05-25T08:13:39.904Z,99808.08
2019-05-25T08:16:11.016Z,99810.67
2019-05-25T08:18:42.129Z,99796.70
2019-05-25T08:21:13.120Z,99796.25
2019-05-25T08:23:44.141Z,99796.91
2019-05-25T08:26:15.555Z,99793.41
2019-05-25T08:28:46.494Z,99785.47
2019-05-25T08:31:17.512Z,99794.38
2019-05-25T08:33:48.482Z,99797.05
2019-05-25T08:36:19.623Z,99796.05
2019-05-25T08:38:50.554Z,99786.53
2019-05-25T08:41:21.563Z,99780.27
2019-05-25T08:43:52.745Z,99769.08
2019-05-25T08:46:23.761Z,99766.78
2019-05-25T08:48:54.744Z,99762.84
2019-05-25T08:51:25.768Z,99761.14
2019-05-25T08:53:57.057Z,99748.50
2019-05-25T08:56:28.018Z,99756.44
2019-05-25T08:58:58.950Z,99746.47
2019-05-25T09:01:29.914Z,99747.41
2019-05-25T09:04:00.910Z,99746.14
2019-05-25T09:06:31.886Z,99733.67
2019-05-25T09:09:03.494Z,99736.11
2019-05-25T09:11:34.499Z,99733.23
2019-05-25T09:14:05.512Z,99729.37
2019-05-25T09:16:36.492Z,99732.48
2019-05-25T09:19:07.616Z,99736.33
2019-05-25T09:21:38.600Z,99734.23
2019-05-25T09:24:11.150Z,99731.84
2019-05-25T09:26:42.144Z,99738.95
2019-05-25T09:29:13.187Z,99733.14
2019-05-25T09:31:44.146Z,99729.55
2019-05-25T09:34:15.038Z,99725.59
2019-05-25T09:36:46.022Z,99719.02
2019-05-25T09:39:17.048Z,99720.50
2019-05-25T09:41:47.971Z,99715.33
2019-05-25T09:44:22.078Z,99710.06
2019-05-25T09:46:53.063Z,99704.23
2019-05-25T09:49:24.163Z,99695.15
2019-05-25T09:51:55.171Z,99694.53
2019-05-25T09:54:26.175Z,99696.37
2019-05-25T09:56:57.319Z,99698.31
2019-05-25T09:59:28.511Z,99697.63
2019-05-25T10:01:59.447Z,99699.10
2019-05-25T10:04:30.659Z,99702.09
2019-05-25T10:07:01.628Z,99696.30
2019-05-25T10:09:32.718Z,99688.01
2019-05-25T10:12:04.236Z,99684.96
2019-05-25T10:14:35.356Z,99687.91
2019-05-25T10:17:06.374Z,99689.00
2019-05-25T10:19:37.369Z,99697.72
2019-05-25T10:22:08.446Z,99703.16
2019-05-25T10:24:39.459Z,99715.16
2019-05-25T10:27:10.451Z,99726.47
2019-05-25T10:29:41.496Z,99724.53
2019-05-25T10:32:12.859Z,99733.34
2019-05-25T10:34:44.065Z,99731.10
2019-05-25T10:37:15.235Z,99740.84
2019-05-25T10:39:46.428Z,99750.70
2019-05-25T10:42:17.426Z,99762.80
2019-05-25T10:44:48.474Z,99759.17
2019-05-25T10:47:19.463Z,99765.00
2019-05-25T10:49:50.450Z,99770.68
2019-05-25T10:52:21.409Z,99770.17
2019-05-25T10:54:52.447Z,99765.51
2019-05-25T10:57:23.446Z,99768.16
2019-05-25T10:59:54.550Z,99759.72
2019-05-25T11:02:25.539Z,99742.13
2019-05-25T11:04:56.639Z,99737.27
2019-05-25T11:07:27.746Z,99732.30
2019-05-25T11:09:58.698Z,99735.98
2019-05-25T11:12:31.291Z,99728.80
2019-05-25T11:15:03.805Z,99738.34
2019-05-25T11:17:35.021Z,99736.34
2019-05-25T11:20:08.113Z,99735.09
2019-05-25T11:22:39.086Z,99738.11
2019-05-25T11:25:10.442Z,99742.15
2019-05-25T11:27:41.346Z,99743.09
2019-05-25T11:30:13.877Z,99735.54
2019-05-25T11:32:44.978Z,99731.05
2019-05-25T11:35:17.628Z,99722.77
2019-05-25T11:37:48.678Z,99724.59
2019-05-25T11:40:22.259Z,99722.49
2019-05-25T11:42:53.291Z,99731.60
2019-05-25T11:45:24.571Z,99733.51
2019-05-25T11:47:55.583Z,99739.38
2019-05-25T11:50:26.607Z,99734.61
2019-05-25T11:52:57.605Z,99742.49
2019-05-25T11:55:28.695Z,99742.37
2019-05-25T11:58:00.106Z,99746.02
2019-05-25T12:00:32.138Z,99755.30
2019-05-25T12:03:03.208Z,99756.30
2019-05-25T12:05:34.182Z,99769.31
2019-05-25T12:08:05.171Z,99765.77
2019-05-25T12:10:36.433Z,99763.94
2019-05-25T12:13:07.526Z,99769.97
2019-05-25T12:15:38.416Z,99764.06
2019-05-25T12:18:09.500Z,99773.34
2019-05-25T12:20:40.549Z,99770.91
2019-05-25T12:23:11.734Z,99772.80
2019-05-25T12:25:42.886Z,99771.44
2019-05-25T12:28:14.232Z,99758.94
2019-05-25T12:30:45.169Z,99763.87
2019-05-25T12:33:16.219Z,99761.63
2019-05-25T12:35:47.128Z,99763.93
2019-05-25T12:38:18.146Z,99762.56
2019-05-25T12:40:54.196Z,99761.33
2019-05-25T12:43:25.686Z,99762.31
2019-05-25T12:45:56.751Z,99749.37
2019-05-25T12:48:27.815Z,99740.79
2019-05-25T12:50:58.787Z,99739.94
2019-05-25T12:53:29.786Z,99724.36
2019-05-25T12:56:00.848Z,99712.59
2019-05-25T12:58:31.872Z,99713.48
2019-05-25T13:01:03.202Z,99705.72
2019-05-25T13:03:34.230Z,99703.59
2019-05-25T13:06:05.187Z,99696.05
2019-05-25T13:08:36.177Z,99691.15
2019-05-25T13:11:09.647Z,99692.61
2019-05-25T13:13:40.207Z,99694.47
2019-05-25T13:16:11.237Z,99692.34
2019-05-25T13:18:42.395Z,99691.54
2019-05-25T13:21:13.542Z,99691.41
2019-05-25T13:23:44.578Z,99696.92
2019-05-25T13:26:15.618Z,99701.11
2019-05-25T13:28:46.534Z,99699.41
2019-05-25T13:31:19.127Z,99695.42
2019-05-25T13:33:50.221Z,99684.58
2019-05-25T13:36:32.645Z,99691.50
2019-05-25T13:39:07.587Z,99689.56
2019-05-25T13:41:38.552Z,99680.34
2019-05-25T13:44:12.842Z,99681.43
2019-05-25T13:46:47.341Z,99678.93
2019-05-25T13:49:19.026Z,99673.73
2019-05-25T13:52:01.156Z,99667.84
2019-05-25T13:54:33.160Z,99670.09
2019-05-25T13:57:04.308Z,99662.73
2019-05-25T13:59:40.103Z,99659.05
2019-05-25T14:02:14.135Z,99658.36
2019-05-25T14:04:46.171Z,99654.55
2019-05-25T14:07:17.431Z,99651.11
2019-05-25T14:09:48.587Z,99643.11
2019-05-25T14:12:19.766Z,99645.70
2019-05-25T14:14:50.903Z,99654.01
2019-05-25T14:17:21.956Z,99650.81
2019-05-25T14:19:52.972Z,99649.14
2019-05-25T14:22:27.240Z,99646.48
2019-05-25T14:24:58.402Z,99648.16
2019-05-25T14:27:29.585Z,99648.39
2019-05-25T14:30:00.581Z,99638.06
2019-05-25T14:32:31.629Z,99634.94
2019-05-25T14:35:02.693Z,99636.23
2019-05-25T14:37:35.340Z,99636.47
2019-05-25T14:40:11.086Z,99636.02
2019-05-25T14:42:40.594Z,99643.05
2019-05-25T14:45:13.531Z,99642.66
2019-05-25T14:47:44.588Z,99642.03
2019-05-25T14:50:15.572Z,99642.13
2019-05-25T14:52:46.730Z,99645.16
2019-05-25T14:55:20.965Z,99647.97
2019-05-25T14:57:52.063Z,99650.95
2019-05-25T15:00:23.140Z,99648.95
2019-05-25T15:02:58.665Z,99646.94
2019-05-25T15:05:31.262Z,99650.23
2019-05-25T15:08:03.787Z,99649.82
2019-05-25T15:10:34.839Z,99648.19
2019-05-25T15:13:06.360Z,99646.30
2019-05-25T15:15:37.639Z,99655.71
2019-05-25T15:18:08.663Z,99657.49
2019-05-25T15:20:39.727Z,99664.80
2019-05-25T15:23:14.070Z,99669.48
2019-05-25T15:25:46.011Z,99666.20
2019-05-25T15:28:17.136Z,99664.33
2019-05-25T15:30:48.093Z,99670.28
2019-05-25T15:33:19.503Z,99662.48
2019-05-25T15:35:50.787Z,99670.20
2019-05-25T15:38:21.880Z,99662.61
2019-05-25T15:40:52.907Z,99665.25
2019-05-25T15:43:23.796Z,99670.23
2019-05-25T15:45:54.867Z,99671.44
2019-05-25T15:48:26.486Z,99676.59
2019-05-25T15:50:57.724Z,99675.94
2019-05-25T15:53:28.769Z,99671.70
2019-05-25T15:55:59.838Z,99677.50
2019-05-25T15:58:30.894Z,99670.69
2019-05-25T16:01:02.046Z,99671.00
2019-05-25T16:03:33.148Z,99668.18
2019-05-25T16:06:04.156Z,99659.66
2019-05-25T16:08:35.399Z,99666.30
2019-05-25T16:11:06.631Z,99668.31
2019-05-25T16:13:37.723Z,99669.48
2019-05-25T16:16:08.866Z,99659.19
2019-05-25T16:18:39.819Z,99661.36
2019-05-25T16:21:11.157Z,99668.41
2019-05-25T16:23:42.224Z,99670.20
2019-05-25T16:26:13.289Z,99674.81
2019-05-25T16:28:44.269Z,99673.94
2019-05-25T16:31:15.410Z,99674.23
2019-05-25T16:33:46.421Z,99676.14
2019-05-25T16:36:17.461Z,99674.39
2019-05-25T16:38:48.590Z,99676.14
2019-05-25T16:41:19.737Z,99670.41
2019-05-25T16:43:50.721Z,99674.36
2019-05-25T16:46:21.771Z,99675.97
2019-05-25T16:48:52.768Z,99673.27
2019-05-25T16:51:23.852Z,99681.97
2019-05-25T16:53:54.847Z,99675.05
2019-05-25T16:56:25.842Z,99672.81
2019-05-25T16:58:56.834Z,99671.47
2019-05-25T17:01:46.515Z,99669.20
2019-05-25T17:04:01.201Z,99671.83
2019-05-25T17:06:32.223Z,99676.44
2019-05-25T17:09:03.850Z,99676.47
2019-05-25T17:11:34.805Z,99669.11
2019-05-25T17:14:05.755Z,99671.02
2019-05-25T17:16:36.844Z,99674.47
2019-05-25T17:19:07.889Z,99675.47
2019-05-25T17:21:38.985Z,99672.34
2019-05-25T17:24:09.963Z,99679.21
2019-05-25T17:26:41.019Z,99682.00
2019-05-25T17:29:12.025Z,99680.69
2019-05-25T17:31:43.040Z,99684.84
2019-05-25T17:34:14.028Z,99685.67
2019-05-25T17:36:45.040Z,99686.11
2019-05-25T17:39:16.194Z,99685.84
2019-05-25T17:41:47.092Z,99680.13
2019-05-25T17:44:19.011Z,99680.23
2019-05-25T17:46:50.045Z,99685.57
2019-05-25T17:49:21.073Z,99689.56
2019-05-25T17:51:52.532Z,99689.09
2019-05-25T17:54:23.686Z,99692.39
2019-05-25T17:56:54.927Z,99699.39
2019-05-25T17:59:25.921Z,99706.58
2019-05-25T18:01:57.736Z,99698.97
2019-05-25T18:04:28.940Z,99700.27
2019-05-25T18:07:00.019Z,99707.28
2019-05-25T18:09:31.113Z,99711.42
2019-05-25T18:12:02.421Z,99710.11
2019-05-25T18:14:34.845Z,99716.59
2019-05-25T18:17:06.231Z,99717.83
2019-05-25T18:19:37.652Z,99712.51
2019-05-25T18:22:09.026Z,99713.03
2019-05-25T18:24:40.367Z,99715.59
2019-05-25T18:27:11.589Z,99720.59
2019-05-25T18:29:42.641Z,99718.27
2019-05-25T18:32:13.839Z,99722.08
2019-05-25T18:34:44.819Z,99721.31
2019-05-25T18:37:16.018Z,99718.80
2019-05-25T18:39:48.231Z,99722.91
2019-05-25T18:42:20.190Z,99719.58
2019-05-25T18:44:51.410Z,99726.61
2019-05-25T18:47:22.628Z,99722.40
2019-05-25T18:49:53.707Z,99719.09
2019-05-25T18:52:24.865Z,99721.46
2019-05-25T18:54:55.937Z,99723.20
2019-05-25T18:57:27.293Z,99712.48
2019-05-25T18:59:59.758Z,99712.00
2019-05-25T19:02:31.914Z,99711.70
2019-05-25T19:05:03.237Z,99706.79
2019-05-25T19:07:37.805Z,99715.30
2019-05-25T19:10:09.878Z,99706.50
2019-05-25T19:12:41.415Z,99708.15
2019-05-25T19:15:12.870Z,99704.04
2019-05-25T19:17:44.106Z,99707.38
2019-05-25T19:20:21.412Z,99713.98
2019-05-25T19:23:10.906Z,99707.51
2019-05-25T19:25:44.599Z,99715.95
2019-05-25T19:28:15.698Z,99715.24
2019-05-25T19:30:46.788Z,99713.98
2019-05-25T19:33:17.777Z,99720.70
2019-05-25T19:35:54.153Z,99721.15
2019-05-25T19:38:24.264Z,99718.39
2019-05-25T19:40:55.389Z,99711.91
2019-05-25T19:43:28.058Z,99710.59
2019-05-25T19:45:59.207Z,99713.59
2019-05-25T19:48:30.475Z,99712.63
2019-05-25T19:51:01.797Z,99708.39
2019-05-25T19:53:32.872Z,99705.38
2019-05-25T19:56:04.073Z,99703.86
2019-05-25T19:58:38.126Z,99704.06
2019-05-25T20:01:09.386Z,99700.50
2019-05-25T20:03:40.433Z,99698.13
2019-05-25T20:06:11.703Z,99699.17
2019-05-25T20:08:42.998Z,99709.70
2019-05-25T20:11:14.067Z,99702.70
2019-05-25T20:13:45.151Z,99704.70
2019-05-25T20:16:16.194Z,99707.06
2019-05-25T20:18:47.341Z,99708.94
2019-05-25T20:21:18.510Z,99701.50
2019-05-25T20:23:49.589Z,99706.06
2019-05-25T20:26:20.696Z,99704.66
2019-05-25T20:28:51.823Z,99700.94
2019-05-25T20:31:24.370Z,99696.98
2019-05-25T20:33:55.574Z,99696.86
2019-05-25T20:36:26.744Z,99695.54
2019-05-25T20:38:57.851Z,99695.05
2019-05-25T20:41:28.914Z,99702.41
2019-05-25T20:43:59.963Z,99700.57
2019-05-25T20:46:31.101Z,99697.05
2019-05-25T20:49:02.186Z,99695.52
2019-05-25T20:51:33.235Z,99698.44
2019-05-25T20:54:05.198Z,99706.77
2019-05-25T20:56:36.310Z,99707.67
2019-05-25T20:59:07.561Z,99704.59
2019-05-25T21:01:38.593Z,99700.06
2019-05-25T21:04:09.587Z,99702.72
2019-05-25T21:06:40.651Z,99707.99
2019-05-25T21:09:11.698Z,99709.34
2019-05-25T21:11:42.674Z,99712.07
2019-05-25T21:14:13.634Z,99709.34
2019-05-25T21:16:44.620Z,99710.52
2019-05-25T21:19:15.634Z,99711.23
2019-05-25T21:21:46.710Z,99708.67
2019-05-25T21:24:17.786Z,99710.06
2019-05-25T21:26:48.958Z,99707.54
2019-05-25T21:29:20.011Z,99714.53
2019-05-25T21:31:51.109Z,99707.77
2019-05-25T21:34:22.214Z,99705.59
2019-05-25T21:36:54.027Z,99706.14
2019-05-25T21:39:25.192Z,99709.21
2019-05-25T21:41:56.338Z,99704.45
2019-05-25T21:44:27.478Z,99698.36
2019-05-25T21:46:58.440Z,99694.80
2019-05-25T21:49:29.564Z,99700.23
2019-05-25T21:52:00.612Z,99704.34
2019-05-25T21:54:31.645Z,99697.58
2019-05-25T21:57:02.680Z,99700.32
2019-05-25T21:59:33.745Z,99701.70
2019-05-25T22:02:04.844Z,99698.30
2019-05-25T22:04:35.893Z,99708.84
2019-05-25T22:07:06.907Z,99711.05
2019-05-25T22:09:37.920Z,99710.02
2019-05-25T22:12:09.117Z,99709.53
2019-05-25T22:14:40.178Z,99704.09
2019-05-25T22:17:11.535Z,99711.22
2019-05-25T22:19:42.525Z,99704.72
2019-05-25T22:22:14.259Z,99707.66
2019-05-25T22:24:45.289Z,99706.08
2019-05-25T22:27:16.493Z,99706.81
2019-05-25T22:29:47.712Z,99703.17
2019-05-25T22:32:18.878Z,99703.34
2019-05-25T22:34:49.917Z,99702.50
2019-05-25T22:37:20.975Z,99701.66
2019-05-25T22:39:52.053Z,99700.78
2019-05-25T22:42:23.034Z,99707.55
2019-05-25T22:44:54.067Z,99698.17
2019-05-25T22:47:26.260Z,99697.13
2019-05-25T22:49:57.387Z,99706.16
2019-05-25T22:52:28.552Z,99708.37
2019-05-25T22:54:59.780Z,99708.20
2019-05-25T22:57:30.890Z,99697.33
2019-05-25T23:00:02.117Z,99700.23
2019-05-25T23:02:33.386Z,99701.76
2019-05-25T23:05:08.109Z,99701.78
2019-05-25T23:07:39.205Z,99701.78
2019-05-25T23:10:11.320Z,99695.51
2019-05-25T23:12:42.358Z,99692.14
2019-05-25T23:15:14.320Z,99694.34
2019-05-25T23:17:45.451Z,99686.54
2019-05-25T23:20:17.186Z,99687.08
2019-05-25T23:22:49.377Z,99686.08
2019-05-25T23:25:20.484Z,99691.23
2019-05-25T23:27:51.495Z,99695.33
2019-05-25T23:30:22.644Z,99697.40
2019-05-25T23:32:53.839Z,99697.23
2019-05-25T23:35:24.929Z,99691.14
2019-05-25T23:37:56.011Z,99692.14
2019-05-25T23:40:27.049Z,99689.13
2019-05-25T23:42:58.113Z,99694.58
2019-05-25T23:45:30.148Z,99686.45
2019-05-25T23:48:01.078Z,99684.25
2019-05-25T23:50:32.134Z,99684.44
2019-05-25T23:53:03.233Z,99683.23
2019-05-25T23:55:34.388Z,99683.42
2019-05-25T23:58:05.606Z,99683.27
